createdAt,value
2023-05-04T00:00:03.994Z,1.68
2023-05-04T00:01:03.808Z,2.06
2023-05-04T00:02:03.888Z,1.65
2023-05-04T00:03:03.993Z,1.83
2023-05-04T00:04:04.125Z,2.16
2023-05-04T00:05:04.052Z,2.19
2023-05-04T00:06:04.046Z,2.12
2023-05-04T00:07:04.123Z,2.04
2023-05-04T00:08:04.181Z,2.21
2023-05-04T00:09:04.240Z,1.95
2023-05-04T00:10:04.542Z,1.98
2023-05-04T00:11:04.322Z,2.51
2023-05-04T00:12:04.374Z,2.30
2023-05-04T00:13:04.476Z,2.13
2023-05-04T00:14:04.462Z,1.79
2023-05-04T00:15:04.531Z,2.22
2023-05-04T00:16:04.623Z,1.86
2023-05-04T00:17:04.642Z,2.23
2023-05-04T00:18:04.785Z,2.39
2023-05-04T00:19:04.747Z,1.74
2023-05-04T00:20:05.045Z,1.71
2023-05-04T00:21:04.873Z,1.74
2023-05-04T00:22:04.895Z,2.05
2023-05-04T00:23:04.984Z,1.96
2023-05-04T00:24:05.077Z,2.17
2023-05-04T00:25:05.108Z,2.26
2023-05-04T00:26:05.155Z,2.39
2023-05-04T00:27:05.240Z,2.03
2023-05-04T00:28:05.305Z,2.07
2023-05-04T00:29:05.347Z,1.99
2023-05-04T00:30:05.611Z,1.85
2023-05-04T00:31:05.461Z,1.70
2023-05-04T00:32:05.769Z,2.09
2023-05-04T00:33:05.591Z,1.91
2023-05-04T00:34:05.656Z,2.14
2023-05-04T00:35:05.688Z,1.88
2023-05-04T00:36:05.769Z,2.16
2023-05-04T00:37:05.856Z,2.27
2023-05-04T00:38:05.869Z,2.25
2023-05-04T00:39:05.958Z,2.01
2023-05-04T00:40:06.165Z,2.07
2023-05-04T00:41:06.042Z,1.92
2023-05-04T00:42:06.115Z,1.50
2023-05-04T00:43:06.181Z,1.93
2023-05-04T00:44:06.279Z,2.19
2023-05-04T00:45:06.275Z,2.46
2023-05-04T00:46:06.341Z,1.76
2023-05-04T00:47:06.468Z,2.30
2023-05-04T00:48:06.509Z,1.89
2023-05-04T00:49:06.577Z,1.88
2023-05-04T00:50:06.843Z,2.12
2023-05-04T00:51:06.679Z,1.91
2023-05-04T00:52:06.708Z,2.09
2023-05-04T00:53:06.771Z,1.96
2023-05-04T00:54:06.862Z,1.76
2023-05-04T00:55:06.914Z,1.93
2023-05-04T00:56:06.917Z,2.22
2023-05-04T00:57:06.960Z,2.32
2023-05-04T00:58:07.029Z,1.82
2023-05-04T00:59:07.087Z,2.07
2023-05-04T01:00:07.471Z,1.74
2023-05-04T01:01:07.262Z,1.94
2023-05-04T01:02:07.277Z,2.12
2023-05-04T01:03:07.505Z,1.95
2023-05-04T01:04:07.443Z,2.36
2023-05-04T01:05:07.407Z,2.10
2023-05-04T01:06:07.461Z,1.85
2023-05-04T01:07:07.522Z,1.93
2023-05-04T01:08:07.588Z,2.05
2023-05-04T01:09:07.626Z,2.11
2023-05-04T01:10:07.806Z,1.70
2023-05-04T01:11:07.672Z,2.17
2023-05-04T01:12:07.697Z,2.13
2023-05-04T01:13:07.801Z,2.03
2023-05-04T01:14:07.698Z,2.15
2023-05-04T01:15:07.712Z,1.98
2023-05-04T01:16:07.783Z,1.75
2023-05-04T01:17:07.876Z,1.90
2023-05-04T01:18:07.975Z,1.82
2023-05-04T01:19:07.800Z,2.25
2023-05-04T01:20:07.909Z,2.31
2023-05-04T01:21:07.836Z,2.19
2023-05-04T01:22:07.858Z,2.19
2023-05-04T01:23:07.852Z,2.24
2023-05-04T01:24:07.856Z,2.44
2023-05-04T01:25:07.875Z,2.01
2023-05-04T01:26:07.893Z,2.09
2023-05-04T01:27:07.957Z,2.25
2023-05-04T01:28:07.979Z,2.16
2023-05-04T01:29:07.976Z,1.87
2023-05-04T01:30:07.975Z,2.10
2023-05-04T01:31:07.979Z,1.57
2023-05-04T01:32:07.990Z,2.10
2023-05-04T01:33:08.042Z,2.06
2023-05-04T01:34:08.012Z,1.65
2023-05-04T01:35:08.019Z,2.09
2023-05-04T01:36:08.024Z,2.42
2023-05-04T01:37:08.057Z,2.10
2023-05-04T01:38:08.064Z,1.95
2023-05-04T01:39:08.060Z,2.14
2023-05-04T01:40:08.081Z,1.78
2023-05-04T01:41:08.064Z,1.89
2023-05-04T01:42:08.058Z,2.08
2023-05-04T01:43:08.100Z,1.87
2023-05-04T01:44:08.171Z,2.29
2023-05-04T01:45:08.174Z,1.50
2023-05-04T01:46:08.225Z,2.01
2023-05-04T01:47:08.143Z,2.19
2023-05-04T01:48:08.189Z,1.93
2023-05-04T01:49:08.249Z,2.42
2023-05-04T01:50:08.313Z,2.02
2023-05-04T01:51:08.434Z,1.66
2023-05-04T01:52:08.433Z,1.83
2023-05-04T01:53:08.401Z,2.17
2023-05-04T01:54:08.441Z,1.91
2023-05-04T01:55:08.419Z,2.14
2023-05-04T01:56:08.393Z,1.57
2023-05-04T01:57:08.518Z,2.17
2023-05-04T01:58:08.490Z,2.09
2023-05-04T01:59:08.485Z,1.93
2023-05-04T02:00:08.524Z,1.43
2023-05-04T02:01:08.603Z,2.20
2023-05-04T02:02:08.657Z,1.98
2023-05-04T02:03:08.637Z,1.96
2023-05-04T02:04:08.757Z,1.87
2023-05-04T02:05:08.647Z,2.08
2023-05-04T02:06:08.683Z,1.94
2023-05-04T02:07:08.677Z,1.82
2023-05-04T02:08:08.686Z,1.87
2023-05-04T02:09:09.089Z,2.06
2023-05-04T02:10:08.666Z,2.13
2023-05-04T02:11:08.666Z,1.62
2023-05-04T02:12:08.666Z,1.64
2023-05-04T02:13:08.699Z,1.97
2023-05-04T02:14:08.719Z,1.46
2023-05-04T02:15:08.807Z,2.44
2023-05-04T02:16:08.847Z,2.14
2023-05-04T02:17:08.806Z,1.66
2023-05-04T02:18:08.827Z,1.62
2023-05-04T02:19:08.824Z,2.23
2023-05-04T02:20:08.868Z,2.21
2023-05-04T02:21:08.876Z,1.78
2023-05-04T02:22:08.892Z,2.15
2023-05-04T02:23:08.947Z,1.92
2023-05-04T02:24:09.061Z,1.81
2023-05-04T02:25:08.926Z,1.96
2023-05-04T02:26:08.981Z,1.94
2023-05-04T02:27:08.975Z,1.82
2023-05-04T02:28:08.968Z,1.87
2023-05-04T02:29:08.992Z,1.46
2023-05-04T02:30:09.040Z,1.47
2023-05-04T02:31:09.159Z,1.53
2023-05-04T02:32:09.069Z,1.84
2023-05-04T02:33:09.119Z,1.61
2023-05-04T02:34:09.129Z,1.81
2023-05-04T02:35:09.171Z,1.92
2023-05-04T02:36:09.167Z,2.22
2023-05-04T02:37:09.266Z,1.59
2023-05-04T02:38:09.219Z,1.57
2023-05-04T02:39:09.288Z,1.97
2023-05-04T02:40:09.219Z,1.68
2023-05-04T02:41:09.290Z,1.88
2023-05-04T02:42:09.305Z,1.62
2023-05-04T02:43:09.382Z,1.38
2023-05-04T02:44:09.299Z,1.69
2023-05-04T02:45:09.362Z,1.91
2023-05-04T02:46:09.380Z,1.74
2023-05-04T02:47:09.345Z,1.61
2023-05-04T02:48:09.446Z,1.59
2023-05-04T02:49:09.433Z,1.73
2023-05-04T02:50:09.463Z,1.95
2023-05-04T02:51:09.480Z,1.79
2023-05-04T02:52:09.480Z,1.77
2023-05-04T02:53:09.489Z,2.24
2023-05-04T02:54:09.494Z,1.57
2023-05-04T02:55:09.595Z,1.51
2023-05-04T02:56:09.598Z,1.84
2023-05-04T02:57:09.602Z,1.72
2023-05-04T02:58:09.634Z,1.81
2023-05-04T02:59:09.632Z,1.78
2023-05-04T03:00:09.694Z,1.36
2023-05-04T03:01:09.728Z,1.86
2023-05-04T03:02:09.695Z,2.17
2023-05-04T03:03:09.772Z,2.05
2023-05-04T03:04:09.787Z,1.59
2023-05-04T03:05:09.796Z,1.80
2023-05-04T03:06:09.821Z,1.80
2023-05-04T03:07:09.826Z,1.90
2023-05-04T03:08:09.830Z,1.58
2023-05-04T03:09:09.907Z,1.98
2023-05-04T03:10:09.940Z,1.99
2023-05-04T03:11:09.952Z,1.91
2023-05-04T03:12:09.986Z,1.82
2023-05-04T03:13:10.074Z,1.89
2023-05-04T03:14:10.009Z,1.74
2023-05-04T03:15:10.056Z,1.35
2023-05-04T03:16:10.098Z,1.96
2023-05-04T03:17:10.127Z,1.68
2023-05-04T03:18:10.152Z,1.95
2023-05-04T03:19:10.142Z,1.68
2023-05-04T03:20:10.207Z,1.93
2023-05-04T03:21:10.209Z,1.89
2023-05-04T03:22:10.289Z,1.71
2023-05-04T03:23:10.258Z,1.77
2023-05-04T03:24:10.351Z,1.82
2023-05-04T03:25:10.347Z,1.65
2023-05-04T03:26:10.350Z,2.24
2023-05-04T03:27:10.419Z,1.60
2023-05-04T03:28:10.420Z,1.68
2023-05-04T03:29:10.478Z,1.68
2023-05-04T03:30:10.464Z,2.04
2023-05-04T03:31:10.544Z,1.93
2023-05-04T03:32:10.556Z,1.82
2023-05-04T03:33:10.582Z,1.83
2023-05-04T03:34:10.602Z,2.16
2023-05-04T03:35:10.629Z,1.82
2023-05-04T03:36:10.685Z,2.06
2023-05-04T03:37:10.690Z,2.04
2023-05-04T03:38:10.741Z,1.84
2023-05-04T03:39:10.804Z,1.71
2023-05-04T03:40:10.811Z,2.54
2023-05-04T03:41:10.855Z,1.83
2023-05-04T03:42:10.947Z,1.51
2023-05-04T03:43:10.923Z,2.24
2023-05-04T03:44:10.982Z,3.07
2023-05-04T03:45:10.998Z,1.60
2023-05-04T03:46:11.102Z,2.12
2023-05-04T03:47:11.070Z,1.99
2023-05-04T03:48:11.144Z,2.27
2023-05-04T03:49:11.174Z,1.43
2023-05-04T03:50:11.192Z,1.81
2023-05-04T03:51:11.216Z,1.93
2023-05-04T03:52:11.249Z,1.89
2023-05-04T03:53:11.318Z,1.36
2023-05-04T03:54:11.323Z,1.69
2023-05-04T03:55:11.380Z,1.74
2023-05-04T03:56:11.381Z,1.90
2023-05-04T03:57:11.454Z,1.87
2023-05-04T03:58:11.480Z,2.21
2023-05-04T03:59:11.532Z,1.36
2023-05-04T04:00:11.619Z,1.46
2023-05-04T04:01:11.593Z,1.66
2023-05-04T04:02:11.730Z,1.63
2023-05-04T04:03:11.831Z,1.52
2023-05-04T04:04:11.703Z,1.65
2023-05-04T04:05:11.736Z,1.47
2023-05-04T04:06:11.764Z,1.78
2023-05-04T04:07:11.811Z,1.55
2023-05-04T04:08:11.856Z,1.82
2023-05-04T04:09:11.892Z,1.14
2023-05-04T04:10:11.977Z,1.58
2023-05-04T04:11:12.051Z,1.13
2023-05-04T04:12:12.053Z,1.73
2023-05-04T04:13:12.123Z,1.43
2023-05-04T04:14:12.120Z,1.22
2023-05-04T04:15:12.174Z,1.44
2023-05-04T04:16:12.272Z,1.51
2023-05-04T04:17:12.251Z,1.44
2023-05-04T04:18:12.276Z,1.51
2023-05-04T04:19:12.325Z,1.46
2023-05-04T04:20:12.538Z,1.13
2023-05-04T04:21:12.416Z,1.15
2023-05-04T04:22:12.472Z,1.27
2023-05-04T04:23:12.520Z,1.22
2023-05-04T04:24:12.629Z,1.45
2023-05-04T04:25:12.649Z,1.17
2023-05-04T04:26:12.664Z,1.16
2023-05-04T04:27:12.740Z,1.27
2023-05-04T04:28:12.778Z,1.38
2023-05-04T04:29:12.824Z,1.40
2023-05-04T04:30:12.879Z,1.45
2023-05-04T04:31:13.033Z,1.59
2023-05-04T04:32:13.017Z,1.25
2023-05-04T04:33:13.065Z,1.35
2023-05-04T04:34:13.123Z,1.27
2023-05-04T04:35:13.200Z,1.41
2023-05-04T04:36:13.243Z,1.43
2023-05-04T04:37:13.547Z,1.53
2023-05-04T04:38:13.438Z,1.40
2023-05-04T04:39:13.485Z,0.99
2023-05-04T04:40:13.491Z,1.38
2023-05-04T04:41:13.563Z,1.35
2023-05-04T04:42:13.621Z,1.61
2023-05-04T04:43:13.635Z,1.21
2023-05-04T04:44:13.705Z,1.54
2023-05-04T04:45:13.745Z,1.58
2023-05-04T04:46:13.869Z,1.55
2023-05-04T04:47:13.853Z,1.06
2023-05-04T04:48:13.951Z,1.37
2023-05-04T04:49:14.005Z,1.47
2023-05-04T04:50:14.055Z,1.35
2023-05-04T04:51:14.209Z,1.57
2023-05-04T04:52:14.157Z,1.12
2023-05-04T04:53:14.215Z,1.16
2023-05-04T04:54:14.273Z,1.63
2023-05-04T04:55:14.346Z,1.99
2023-05-04T04:56:14.407Z,1.45
2023-05-04T04:57:14.454Z,1.57
2023-05-04T04:58:14.504Z,1.58
2023-05-04T04:59:14.528Z,1.46
2023-05-04T05:00:14.584Z,1.46
2023-05-04T05:01:14.693Z,1.55
2023-05-04T05:02:14.700Z,1.74
2023-05-04T05:03:14.866Z,1.43
2023-05-04T05:04:14.811Z,1.99
2023-05-04T05:05:14.890Z,1.55
2023-05-04T05:06:14.936Z,1.81
2023-05-04T05:07:14.998Z,1.89
2023-05-04T05:08:14.998Z,1.99
2023-05-04T05:09:15.108Z,1.57
2023-05-04T05:10:15.109Z,1.65
2023-05-04T05:11:15.153Z,1.55
2023-05-04T05:12:15.227Z,1.53
2023-05-04T05:13:15.300Z,1.99
2023-05-04T05:14:15.350Z,1.82
2023-05-04T05:15:15.405Z,1.92
2023-05-04T05:16:15.434Z,2.14
2023-05-04T05:17:15.467Z,1.75
2023-05-04T05:18:15.491Z,1.86
2023-05-04T05:19:15.529Z,1.50
2023-05-04T05:20:16.169Z,1.66
2023-05-04T05:21:15.636Z,1.94
2023-05-04T05:22:15.685Z,1.64
2023-05-04T05:23:15.751Z,1.80
2023-05-04T05:24:15.814Z,2.16
2023-05-04T05:25:15.884Z,1.97
2023-05-04T05:26:15.898Z,1.75
2023-05-04T05:27:15.985Z,1.65
2023-05-04T05:28:16.029Z,2.00
2023-05-04T05:29:16.074Z,1.82
2023-05-04T05:30:16.098Z,1.86
2023-05-04T05:31:16.179Z,1.96
2023-05-04T05:32:16.216Z,1.88
2023-05-04T05:33:16.377Z,1.89
2023-05-04T05:34:16.311Z,2.14
2023-05-04T05:35:16.361Z,2.11
2023-05-04T05:36:16.344Z,2.30
2023-05-04T05:37:16.414Z,2.16
2023-05-04T05:38:16.427Z,2.33
2023-05-04T05:39:16.393Z,2.79
2023-05-04T05:40:16.482Z,2.33
2023-05-04T05:41:16.471Z,2.37
2023-05-04T05:42:16.479Z,3.35
2023-05-04T05:43:16.508Z,3.04
2023-05-04T05:44:16.578Z,2.62
2023-05-04T05:45:17.035Z,3.56
2023-05-04T05:46:16.653Z,2.56
2023-05-04T05:47:16.590Z,3.25
2023-05-04T05:48:17.053Z,2.54
2023-05-04T05:49:16.716Z,2.46
2023-05-04T05:50:16.735Z,2.45
2023-05-04T05:51:16.724Z,2.80
2023-05-04T05:52:16.793Z,2.40
2023-05-04T05:53:16.781Z,2.38
2023-05-04T05:54:16.852Z,2.25
2023-05-04T05:55:16.878Z,2.55
2023-05-04T05:56:16.839Z,2.12
2023-05-04T05:57:16.881Z,2.55
2023-05-04T05:58:16.890Z,2.25
2023-05-04T05:59:16.936Z,2.12
2023-05-04T06:00:17.030Z,2.27
2023-05-04T06:01:16.990Z,2.14
2023-05-04T06:02:17.081Z,2.37
2023-05-04T06:03:17.209Z,1.85
2023-05-04T06:04:17.152Z,2.12
2023-05-04T06:05:17.148Z,2.26
2023-05-04T06:06:17.248Z,2.70
2023-05-04T06:07:17.257Z,2.17
2023-05-04T06:08:17.246Z,2.82
2023-05-04T06:09:17.296Z,2.47
2023-05-04T06:10:17.318Z,2.22
2023-05-04T06:11:17.576Z,2.20
2023-05-04T06:12:17.369Z,2.46
2023-05-04T06:13:17.595Z,2.00
2023-05-04T06:14:17.518Z,2.24
2023-05-04T06:15:17.388Z,2.08
2023-05-04T06:16:17.481Z,2.46
2023-05-04T06:17:17.498Z,2.08
2023-05-04T06:18:17.507Z,2.18
2023-05-04T06:19:17.558Z,2.13
2023-05-04T06:20:17.603Z,2.86
2023-05-04T06:21:17.710Z,1.96
2023-05-04T06:22:17.746Z,1.63
2023-05-04T06:23:17.811Z,2.21
2023-05-04T06:24:18.076Z,2.30
2023-05-04T06:25:17.899Z,2.31
2023-05-04T06:26:17.911Z,1.62
2023-05-04T06:27:17.971Z,2.04
2023-05-04T06:28:18.028Z,2.00
2023-05-04T06:29:18.005Z,2.10
2023-05-04T06:30:18.120Z,2.59
2023-05-04T06:31:18.155Z,2.10
2023-05-04T06:32:18.202Z,2.08
2023-05-04T06:33:18.238Z,1.88
2023-05-04T06:34:18.246Z,2.03
2023-05-04T06:35:18.250Z,2.29
2023-05-04T06:36:18.306Z,2.28
2023-05-04T06:37:19.000Z,1.91
2023-05-04T06:38:18.401Z,2.54
2023-05-04T06:39:18.382Z,2.41
2023-05-04T06:40:18.383Z,2.88
2023-05-04T06:41:18.383Z,2.36
2023-05-04T06:42:18.417Z,2.10
2023-05-04T06:43:18.457Z,2.09
2023-05-04T06:44:18.462Z,1.85
2023-05-04T06:45:18.461Z,2.53
2023-05-04T06:46:18.611Z,2.48
2023-05-04T06:47:18.586Z,2.11
2023-05-04T06:48:18.498Z,2.69
2023-05-04T06:49:18.614Z,2.14
2023-05-04T06:50:18.652Z,1.96
2023-05-04T06:51:18.701Z,2.25
2023-05-04T06:52:19.017Z,2.02
2023-05-04T06:53:18.793Z,2.06
2023-05-04T06:54:19.039Z,2.09
2023-05-04T06:55:18.862Z,2.53
2023-05-04T06:56:18.904Z,1.90
2023-05-04T06:57:18.918Z,1.97
2023-05-04T06:58:18.959Z,2.32
2023-05-04T06:59:18.958Z,2.49
2023-05-04T07:00:19.546Z,2.21
2023-05-04T07:01:19.596Z,1.89
2023-05-04T07:02:19.046Z,2.43
2023-05-04T07:03:19.130Z,2.16
2023-05-04T07:04:19.111Z,2.16
2023-05-04T07:05:20.029Z,2.03
2023-05-04T07:06:19.180Z,2.11
2023-05-04T07:07:19.183Z,1.99
2023-05-04T07:08:19.208Z,1.99
2023-05-04T07:09:19.232Z,2.49
2023-05-04T07:10:19.249Z,2.50
2023-05-04T07:11:19.235Z,2.45
2023-05-04T07:12:19.319Z,2.44
2023-05-04T07:13:19.284Z,2.06
2023-05-04T07:14:19.334Z,1.59
2023-05-04T07:15:19.337Z,1.93
2023-05-04T07:16:19.366Z,1.86
2023-05-04T07:17:19.348Z,2.18
2023-05-04T07:18:19.363Z,1.99
2023-05-04T07:19:19.379Z,2.12
2023-05-04T07:20:19.427Z,2.57
2023-05-04T07:22:19.443Z,2.39
2023-05-04T07:23:19.404Z,1.66
2023-05-04T07:24:19.367Z,2.12
2023-05-04T07:25:19.516Z,2.03
2023-05-04T07:26:19.339Z,1.89
2023-05-04T07:27:19.414Z,2.79
2023-05-04T07:28:19.360Z,2.14
2023-05-04T07:29:19.358Z,1.96
2023-05-04T07:30:19.531Z,2.41
2023-05-04T07:31:19.330Z,2.38
2023-05-04T07:32:19.436Z,2.68
2023-05-04T07:33:19.391Z,2.30
2023-05-04T07:34:20.157Z,3.37
2023-05-04T07:35:19.518Z,2.72
2023-05-04T07:36:19.326Z,2.57
2023-05-04T07:37:19.315Z,2.73
2023-05-04T07:38:19.316Z,2.43
2023-05-04T07:39:19.318Z,2.33
2023-05-04T07:40:19.510Z,2.48
2023-05-04T07:41:19.537Z,2.38
2023-05-04T07:42:19.260Z,2.47
2023-05-04T07:43:19.258Z,2.71
2023-05-04T07:44:19.412Z,2.13
2023-05-04T07:45:19.454Z,2.49
2023-05-04T07:46:19.305Z,1.93
2023-05-04T07:47:19.251Z,2.23
2023-05-04T07:48:19.260Z,1.96
2023-05-04T07:49:19.210Z,2.01
2023-05-04T07:50:19.470Z,1.81
2023-05-04T07:51:19.482Z,1.98
2023-05-04T07:52:19.208Z,1.87
2023-05-04T07:53:19.225Z,2.18
2023-05-04T07:54:20.266Z,1.83
2023-05-04T07:55:19.210Z,1.69
2023-05-04T07:56:19.498Z,2.19
2023-05-04T07:57:19.327Z,1.73
2023-05-04T07:58:19.165Z,1.54
2023-05-04T07:59:19.184Z,1.73
2023-05-04T08:00:19.181Z,1.64
2023-05-04T08:01:19.116Z,1.68
2023-05-04T08:02:19.172Z,2.02
2023-05-04T08:03:19.193Z,1.73
2023-05-04T08:04:19.148Z,1.69
2023-05-04T08:05:19.480Z,1.64
2023-05-04T08:06:19.519Z,1.85
2023-05-04T08:07:19.147Z,1.39
2023-05-04T08:08:19.196Z,1.83
2023-05-04T08:09:19.081Z,1.83
2023-05-04T08:10:19.092Z,1.85
2023-05-04T08:11:20.517Z,1.66
2023-05-04T08:12:19.060Z,2.08
2023-05-04T08:13:19.263Z,1.71
2023-05-04T08:14:19.083Z,1.62
2023-05-04T08:15:19.036Z,1.41
2023-05-04T08:16:19.044Z,1.53
2023-05-04T08:17:19.024Z,1.57
2023-05-04T08:18:19.023Z,1.42
2023-05-04T08:19:19.062Z,1.49
2023-05-04T08:20:19.029Z,1.88
2023-05-04T08:21:19.028Z,1.55
2023-05-04T08:22:19.067Z,1.59
2023-05-04T08:23:19.111Z,1.69
2023-05-04T08:24:19.213Z,1.39
2023-05-04T08:25:19.212Z,1.62
2023-05-04T08:26:19.248Z,1.91
2023-05-04T08:27:19.458Z,1.70
2023-05-04T08:28:19.261Z,1.69
2023-05-04T08:29:19.351Z,1.48
2023-05-04T08:30:19.369Z,1.63
2023-05-04T08:31:19.463Z,1.70
2023-05-04T08:32:19.486Z,1.93
2023-05-04T08:33:19.549Z,1.50
2023-05-04T08:34:19.619Z,1.78
2023-05-04T08:35:19.591Z,2.02
2023-05-04T08:36:19.620Z,2.20
2023-05-04T08:37:19.703Z,1.91
2023-05-04T08:38:19.756Z,1.43
2023-05-04T08:39:19.815Z,1.68
2023-05-04T08:40:19.825Z,1.50
2023-05-04T08:41:19.941Z,1.67
2023-05-04T08:42:20.031Z,1.67
2023-05-04T08:43:19.972Z,1.60
2023-05-04T08:44:20.470Z,1.85
2023-05-04T08:45:20.058Z,2.35
2023-05-04T08:46:20.185Z,2.11
2023-05-04T08:47:20.149Z,1.72
2023-05-04T08:48:20.317Z,1.51
2023-05-04T08:49:20.301Z,1.98
2023-05-04T08:50:20.353Z,2.09
2023-05-04T08:51:20.422Z,1.71
2023-05-04T08:52:20.433Z,1.91
2023-05-04T08:53:20.501Z,1.95
2023-05-04T08:54:20.562Z,1.93
2023-05-04T08:55:20.637Z,1.81
2023-05-04T08:56:20.682Z,1.77
2023-05-04T08:57:20.740Z,1.71
2023-05-04T08:58:20.764Z,1.48
2023-05-04T08:59:20.902Z,1.77
2023-05-04T09:00:20.904Z,1.85
2023-05-04T09:01:20.949Z,1.74
2023-05-04T09:02:21.024Z,1.87
2023-05-04T09:03:21.112Z,1.57
2023-05-04T09:04:21.084Z,1.72
2023-05-04T09:05:21.096Z,2.49
2023-05-04T09:06:21.142Z,1.68
2023-05-04T09:07:21.219Z,1.61
2023-05-04T09:08:21.227Z,1.67
2023-05-04T09:09:21.256Z,1.34
2023-05-04T09:10:21.342Z,1.69
2023-05-04T09:11:21.356Z,1.73
2023-05-04T09:12:21.484Z,1.83
2023-05-04T09:13:21.398Z,1.93
2023-05-04T09:14:21.956Z,0.94
2023-05-04T09:15:21.468Z,1.61
2023-05-04T09:16:21.554Z,1.30
2023-05-04T09:17:21.540Z,1.54
2023-05-04T09:18:21.604Z,1.34
2023-05-04T09:19:21.611Z,1.62
2023-05-04T09:20:21.719Z,1.77
2023-05-04T09:21:21.619Z,1.82
2023-05-04T09:22:21.665Z,1.35
2023-05-04T09:23:21.688Z,1.47
2023-05-04T09:24:21.714Z,1.62
2023-05-04T09:25:21.780Z,1.66
2023-05-04T09:26:21.961Z,1.51
2023-05-04T09:27:21.759Z,1.41
2023-05-04T09:28:21.907Z,1.37
2023-05-04T09:29:21.833Z,1.69
2023-05-04T09:30:21.876Z,1.44
2023-05-04T09:31:22.483Z,1.47
2023-05-04T09:32:21.983Z,1.91
2023-05-04T09:33:22.029Z,1.76
2023-05-04T09:34:22.060Z,1.60
2023-05-04T09:35:32.431Z,2.49
2023-05-04T09:36:23.021Z,1.46
2023-05-04T09:37:21.992Z,1.45
2023-05-04T09:38:21.983Z,1.62
2023-05-04T09:39:22.013Z,1.48
2023-05-04T09:40:21.993Z,1.38
2023-05-04T09:41:22.014Z,1.37
2023-05-04T09:42:21.964Z,1.77
2023-05-04T09:43:21.970Z,1.50
2023-05-04T09:44:21.948Z,1.40
2023-05-04T09:45:21.960Z,1.13
2023-05-04T09:46:21.955Z,1.37
2023-05-04T09:47:21.941Z,1.47
2023-05-04T09:48:21.903Z,1.48
2023-05-04T09:49:21.904Z,1.05
2023-05-04T09:50:21.958Z,1.35
2023-05-04T09:51:21.928Z,1.54
2023-05-04T09:52:21.978Z,1.11
2023-05-04T09:53:21.947Z,1.58
2023-05-04T09:54:21.839Z,1.43
2023-05-04T09:55:21.907Z,1.05
2023-05-04T09:56:21.927Z,1.37
2023-05-04T09:57:21.976Z,1.60
2023-05-04T09:58:21.996Z,1.36
2023-05-04T09:59:22.036Z,1.35
2023-05-04T10:00:22.089Z,1.27
2023-05-04T10:01:22.141Z,1.05
2023-05-04T10:02:23.432Z,1.23
2023-05-04T10:03:22.312Z,1.13
2023-05-04T10:04:22.265Z,1.18
2023-05-04T10:05:22.292Z,1.12
2023-05-04T10:06:22.318Z,1.13
2023-05-04T10:07:22.353Z,1.55
2023-05-04T10:08:22.370Z,1.73
2023-05-04T10:09:22.379Z,1.29
2023-05-04T10:10:22.463Z,0.94
2023-05-04T10:11:22.504Z,1.42
2023-05-04T10:12:22.557Z,1.44
2023-05-04T10:13:22.546Z,1.26
2023-05-04T10:14:22.565Z,1.44
2023-05-04T10:15:22.541Z,0.94
2023-05-04T10:16:22.568Z,1.19
2023-05-04T10:17:22.581Z,1.04
2023-05-04T10:18:22.566Z,0.78
2023-05-04T10:19:22.574Z,1.22
2023-05-04T10:20:22.573Z,1.49
2023-05-04T10:21:22.642Z,1.12
2023-05-04T10:22:22.544Z,1.14
2023-05-04T10:23:23.918Z,1.23
2023-05-04T10:24:22.545Z,1.18
2023-05-04T10:25:22.597Z,1.51
2023-05-04T10:26:22.549Z,1.19
2023-05-04T10:27:22.526Z,1.12
2023-05-04T10:28:22.508Z,1.51
2023-05-04T10:29:23.511Z,1.04
2023-05-04T10:30:22.526Z,1.15
2023-05-04T10:31:22.561Z,1.12
2023-05-04T10:32:22.618Z,1.85
2023-05-04T10:33:22.573Z,1.27
2023-05-04T10:34:22.539Z,1.32
2023-05-04T10:35:22.526Z,1.56
2023-05-04T10:36:22.533Z,1.17
2023-05-04T10:37:22.539Z,1.08
2023-05-04T10:38:22.923Z,1.39
2023-05-04T10:39:22.549Z,1.15
2023-05-04T10:40:22.627Z,1.31
2023-05-04T10:41:22.516Z,1.09
2023-05-04T10:42:22.507Z,1.21
2023-05-04T10:43:22.517Z,1.26
2023-05-04T10:44:22.540Z,1.16
2023-05-04T10:45:22.493Z,1.27
2023-05-04T10:46:22.506Z,1.20
2023-05-04T10:47:22.501Z,1.18
2023-05-04T10:48:22.506Z,1.03
2023-05-04T10:49:22.526Z,1.44
2023-05-04T10:50:22.567Z,1.14
2023-05-04T10:51:22.695Z,1.34
2023-05-04T10:52:22.583Z,1.45
2023-05-04T10:53:22.554Z,0.90
2023-05-04T10:54:22.578Z,1.21
2023-05-04T10:55:22.686Z,1.17
2023-05-04T10:56:22.632Z,1.47
2023-05-04T10:57:22.670Z,1.05
2023-05-04T10:58:22.696Z,1.38
2023-05-04T10:59:22.729Z,1.22
2023-05-04T11:00:22.701Z,1.04
2023-05-04T11:01:22.844Z,1.58
2023-05-04T11:02:22.860Z,1.19
2023-05-04T11:03:22.833Z,1.25
2023-05-04T11:04:22.812Z,1.52
2023-05-04T11:05:22.784Z,1.48
2023-05-04T11:06:24.081Z,1.19
2023-05-04T11:07:22.844Z,1.25
2023-05-04T11:08:22.898Z,1.37
2023-05-04T11:09:22.911Z,0.98
2023-05-04T11:10:22.929Z,1.10
2023-05-04T11:11:22.964Z,1.23
2023-05-04T11:12:23.055Z,1.21
2023-05-04T11:13:23.204Z,1.19
2023-05-04T11:14:23.459Z,1.25
2023-05-04T11:15:23.417Z,1.27
2023-05-04T11:16:23.201Z,1.13
2023-05-04T11:17:28.216Z,1.64
2023-05-04T11:18:24.404Z,3.06
2023-05-04T11:19:23.418Z,1.23
2023-05-04T11:20:23.409Z,1.30
2023-05-04T11:21:23.170Z,1.59
2023-05-04T11:22:23.167Z,1.14
2023-05-04T11:23:23.408Z,1.06
2023-05-04T11:24:23.416Z,1.01
2023-05-04T11:25:23.148Z,1.12
2023-05-04T11:26:23.140Z,1.54
2023-05-04T11:27:23.120Z,2.19
2023-05-04T11:28:23.081Z,1.06
2023-05-04T11:29:23.100Z,1.41
2023-05-04T11:30:23.075Z,1.02
2023-05-04T11:31:23.153Z,1.29
2023-05-04T11:32:23.145Z,1.05
2023-05-04T11:33:23.051Z,0.97
2023-05-04T11:34:23.077Z,0.91
2023-05-04T11:35:23.112Z,1.11
2023-05-04T11:36:23.166Z,0.99
2023-05-04T11:37:23.194Z,1.10
2023-05-04T11:38:23.209Z,0.84
2023-05-04T11:39:23.229Z,0.89
2023-05-04T11:40:23.274Z,0.80
2023-05-04T11:41:23.272Z,1.03
2023-05-04T11:42:23.298Z,0.83
2023-05-04T11:43:23.364Z,0.96
2023-05-04T11:44:23.391Z,0.92
2023-05-04T11:45:23.466Z,1.09
2023-05-04T11:46:23.573Z,1.19
2023-05-04T11:47:23.604Z,1.15
2023-05-04T11:48:23.634Z,0.86
2023-05-04T11:49:23.656Z,1.29
2023-05-04T11:50:23.753Z,0.97
2023-05-04T11:51:23.722Z,1.20
2023-05-04T11:52:23.795Z,1.06
2023-05-04T11:53:23.812Z,1.19
2023-05-04T11:54:23.884Z,0.94
2023-05-04T11:55:23.941Z,1.17
2023-05-04T11:56:23.999Z,1.08
2023-05-04T11:57:24.061Z,1.09
2023-05-04T11:58:24.133Z,1.06
2023-05-04T11:59:24.176Z,1.12
2023-05-04T12:00:24.207Z,0.85
2023-05-04T12:01:24.308Z,1.13
2023-05-04T12:02:24.373Z,0.93
2023-05-04T12:03:27.788Z,0.92
2023-05-04T12:04:25.392Z,0.80
2023-05-04T12:05:24.366Z,1.04
2023-05-04T12:06:24.396Z,0.89
2023-05-04T12:07:24.348Z,1.27
2023-05-04T12:08:24.394Z,1.17
2023-05-04T12:09:24.364Z,1.26
2023-05-04T12:10:24.363Z,1.15
2023-05-04T12:11:24.363Z,1.05
2023-05-04T12:12:24.381Z,0.83
2023-05-04T12:13:24.430Z,0.97
2023-05-04T12:14:24.642Z,0.90
2023-05-04T12:15:24.595Z,1.21
2023-05-04T12:16:24.671Z,0.61
2023-05-04T12:17:24.698Z,0.89
2023-05-04T12:18:24.715Z,0.94
2023-05-04T12:19:24.782Z,1.02
2023-05-04T12:20:24.893Z,0.94
2023-05-04T12:21:24.884Z,0.95
2023-05-04T12:22:24.954Z,1.10
2023-05-04T12:23:25.005Z,1.03
2023-05-04T12:24:25.130Z,1.07
2023-05-04T12:25:25.157Z,0.78
2023-05-04T12:26:25.189Z,0.96
2023-05-04T12:27:25.269Z,0.96
2023-05-04T12:28:25.293Z,1.13
2023-05-04T12:29:25.392Z,0.97
2023-05-04T12:30:25.412Z,1.13
2023-05-04T12:31:25.746Z,0.95
2023-05-04T12:32:25.557Z,0.91
2023-05-04T12:33:25.589Z,1.26
2023-05-04T12:34:25.656Z,0.87
2023-05-04T12:35:25.751Z,0.75
2023-05-04T12:36:25.783Z,0.80
2023-05-04T12:37:25.811Z,0.80
2023-05-04T12:38:25.914Z,0.84
2023-05-04T12:39:25.985Z,1.10
2023-05-04T12:40:28.680Z,0.90
2023-05-04T12:41:26.009Z,0.95
2023-05-04T12:42:26.032Z,0.99
2023-05-04T12:43:26.010Z,0.90
2023-05-04T12:44:26.020Z,0.95
2023-05-04T12:45:26.032Z,1.03
2023-05-04T12:46:25.998Z,0.80
2023-05-04T12:47:25.972Z,0.79
2023-05-04T12:48:25.980Z,0.69
2023-05-04T12:49:26.006Z,0.84
2023-05-04T12:50:25.956Z,0.75
2023-05-04T12:51:25.969Z,0.91
2023-05-04T12:52:25.977Z,1.00
2023-05-04T12:53:26.021Z,0.88
2023-05-04T12:54:25.927Z,0.72
2023-05-04T12:55:25.926Z,0.83
2023-05-04T12:56:25.902Z,0.96
2023-05-04T12:57:25.900Z,0.93
2023-05-04T12:58:25.912Z,0.99
2023-05-04T12:59:25.933Z,0.79
2023-05-04T13:00:25.880Z,0.84
2023-05-04T13:01:25.886Z,1.21
2023-05-04T13:02:25.985Z,0.94
2023-05-04T13:03:25.989Z,0.99
2023-05-04T13:04:25.874Z,0.96
2023-05-04T13:05:25.868Z,0.90
2023-05-04T13:06:25.864Z,1.08
2023-05-04T13:07:25.882Z,1.12
2023-05-04T13:08:25.826Z,0.95
2023-05-04T13:09:25.889Z,0.88
2023-05-04T13:10:25.856Z,0.78
2023-05-04T13:11:25.814Z,0.86
2023-05-04T13:12:25.817Z,0.85
2023-05-04T13:13:25.794Z,1.06
2023-05-04T13:14:25.816Z,1.12
2023-05-04T13:15:25.780Z,1.05
2023-05-04T13:16:25.892Z,0.92
2023-05-04T13:17:25.823Z,0.82
2023-05-04T13:18:25.752Z,0.73
2023-05-04T13:19:25.801Z,0.90